sensor_id;sensor_type;location;lat;lon;timestamp;P1;durP1;ratioP1;P2;durP2;ratioP2
38901;SDS011;24661;53.566;9.910;2022-12-10T00:01:23;42.87;;;21.10;;
38901;SDS011;24661;53.566;9.910;2022-12-10T00:03:50;46.40;;;21.30;;
38901;SDS011;24661;53.566;9.910;2022-12-10T00:06:18;50.43;;;22.40;;
38901;SDS011;24661;53.566;9.910;2022-12-10T00:08:47;47.67;;;22.27;;
38901;SDS011;24661;53.566;9.910;2022-12-10T00:11:13;58.57;;;23.47;;
38901;SDS011;24661;53.566;9.910;2022-12-10T00:13:40;62.17;;;25.77;;
38901;SDS011;24661;53.566;9.910;2022-12-10T00:16:10;58.50;;;23.17;;
38901;SDS011;24661;53.566;9.910;2022-12-10T00:18:38;52.60;;;23.23;;
38901;SDS011;24661;53.566;9.910;2022-12-10T00:21:09;53.77;;;22.77;;
38901;SDS011;24661;53.566;9.910;2022-12-10T00:23:43;55.23;;;22.73;;
38901;SDS011;24661;53.566;9.910;2022-12-10T00:26:12;54.73;;;22.63;;
38901;SDS011;24661;53.566;9.910;2022-12-10T00:28:42;54.80;;;23.10;;
38901;SDS011;24661;53.566;9.910;2022-12-10T00:31:16;53.67;;;21.07;;
38901;SDS011;24661;53.566;9.910;2022-12-10T00:33:50;53.43;;;22.53;;
38901;SDS011;24661;53.566;9.910;2022-12-10T00:36:19;53.13;;;20.53;;
38901;SDS011;24661;53.566;9.910;2022-12-10T00:38:50;47.93;;;19.67;;
38901;SDS011;24661;53.566;9.910;2022-12-10T00:41:17;46.00;;;20.47;;
38901;SDS011;24661;53.566;9.910;2022-12-10T00:43:43;47.47;;;19.27;;
38901;SDS011;24661;53.566;9.910;2022-12-10T00:46:15;52.13;;;21.80;;
38901;SDS011;24661;53.566;9.910;2022-12-10T00:48:48;44.50;;;20.97;;
38901;SDS011;24661;53.566;9.910;2022-12-10T00:51:16;47.57;;;20.03;;
38901;SDS011;24661;53.566;9.910;2022-12-10T00:53:48;47.97;;;20.27;;
38901;SDS011;24661;53.566;9.910;2022-12-10T00:56:16;52.77;;;19.87;;
38901;SDS011;24661;53.566;9.910;2022-12-10T00:58:45;51.27;;;19.57;;
38901;SDS011;24661;53.566;9.910;2022-12-10T01:01:15;37.00;;;18.20;;
38901;SDS011;24661;53.566;9.910;2022-12-10T01:03:41;44.23;;;18.10;;
38901;SDS011;24661;53.566;9.910;2022-12-10T01:06:18;34.93;;;17.03;;
38901;SDS011;24661;53.566;9.910;2022-12-10T01:08:46;45.03;;;19.40;;
38901;SDS011;24661;53.566;9.910;2022-12-10T01:11:14;34.60;;;17.30;;
38901;SDS011;24661;53.566;9.910;2022-12-10T01:13:42;37.33;;;17.47;;
38901;SDS011;24661;53.566;9.910;2022-12-10T01:16:09;43.30;;;19.27;;
38901;SDS011;24661;53.566;9.910;2022-12-10T01:18:38;34.63;;;17.97;;
38901;SDS011;24661;53.566;9.910;2022-12-10T01:21:05;36.70;;;16.90;;
38901;SDS011;24661;53.566;9.910;2022-12-10T01:23:32;42.77;;;18.73;;
38901;SDS011;24661;53.566;9.910;2022-12-10T01:26:03;40.43;;;19.30;;
38901;SDS011;24661;53.566;9.910;2022-12-10T01:28:32;38.67;;;17.97;;
38901;SDS011;24661;53.566;9.910;2022-12-10T01:31:00;41.10;;;18.50;;
38901;SDS011;24661;53.566;9.910;2022-12-10T01:33:27;42.33;;;18.97;;
38901;SDS011;24661;53.566;9.910;2022-12-10T01:35:54;39.27;;;19.90;;
38901;SDS011;24661;53.566;9.910;2022-12-10T01:38:20;28.60;;;15.67;;
38901;SDS011;24661;53.566;9.910;2022-12-10T01:40:45;32.43;;;16.07;;
38901;SDS011;24661;53.566;9.910;2022-12-10T01:43:14;30.53;;;14.70;;
38901;SDS011;24661;53.566;9.910;2022-12-10T01:45:40;32.13;;;15.73;;
38901;SDS011;24661;53.566;9.910;2022-12-10T01:48:06;37.00;;;16.53;;
38901;SDS011;24661;53.566;9.910;2022-12-10T01:50:32;34.97;;;17.07;;
38901;SDS011;24661;53.566;9.910;2022-12-10T01:52:58;39.23;;;16.83;;
38901;SDS011;24661;53.566;9.910;2022-12-10T01:58:09;35.37;;;17.80;;
38901;SDS011;24661;53.566;9.910;2022-12-10T02:00:38;31.47;;;15.60;;
38901;SDS011;24661;53.566;9.910;2022-12-10T02:03:12;28.63;;;14.20;;
38901;SDS011;24661;53.566;9.910;2022-12-10T02:05:44;33.33;;;16.53;;
38901;SDS011;24661;53.566;9.910;2022-12-10T02:13:55;27.67;;;13.83;;
38901;SDS011;24661;53.566;9.910;2022-12-10T02:18:58;25.07;;;12.70;;
38901;SDS011;24661;53.566;9.910;2022-12-10T02:21:33;21.20;;;12.00;;
38901;SDS011;24661;53.566;9.910;2022-12-10T02:24:04;26.17;;;12.70;;
38901;SDS011;24661;53.566;9.910;2022-12-10T02:26:51;23.27;;;11.90;;
38901;SDS011;24661;53.566;9.910;2022-12-10T02:29:19;22.33;;;11.47;;
38901;SDS011;24661;53.566;9.910;2022-12-10T02:31:56;21.53;;;10.73;;
38901;SDS011;24661;53.566;9.910;2022-12-10T02:34:28;24.53;;;11.67;;
38901;SDS011;24661;53.566;9.910;2022-12-10T02:36:58;21.90;;;11.77;;
38901;SDS011;24661;53.566;9.910;2022-12-10T02:39:29;23.90;;;11.90;;
38901;SDS011;24661;53.566;9.910;2022-12-10T02:41:59;31.77;;;12.93;;
38901;SDS011;24661;53.566;9.910;2022-12-10T02:44:27;24.43;;;13.17;;
38901;SDS011;24661;53.566;9.910;2022-12-10T02:46:55;24.07;;;13.03;;
38901;SDS011;24661;53.566;9.910;2022-12-10T02:49:23;27.87;;;14.43;;
38901;SDS011;24661;53.566;9.910;2022-12-10T02:51:51;26.10;;;12.00;;
38901;SDS011;24661;53.566;9.910;2022-12-10T02:54:34;22.83;;;11.77;;
38901;SDS011;24661;53.566;9.910;2022-12-10T02:57:07;17.00;;;10.30;;
38901;SDS011;24661;53.566;9.910;2022-12-10T03:00:04;20.90;;;10.57;;
38901;SDS011;24661;53.566;9.910;2022-12-10T03:05:29;23.60;;;10.93;;
38901;SDS011;24661;53.566;9.910;2022-12-10T03:07:57;23.33;;;12.83;;
38901;SDS011;24661;53.566;9.910;2022-12-10T03:10:35;24.37;;;12.47;;
38901;SDS011;24661;53.566;9.910;2022-12-10T03:13:09;25.50;;;13.17;;
38901;SDS011;24661;53.566;9.910;2022-12-10T03:15:40;22.33;;;12.57;;
38901;SDS011;24661;53.566;9.910;2022-12-10T03:18:07;22.67;;;11.43;;
38901;SDS011;24661;53.566;9.910;2022-12-10T03:20:39;23.10;;;11.87;;
38901;SDS011;24661;53.566;9.910;2022-12-10T03:23:09;26.50;;;12.50;;
38901;SDS011;24661;53.566;9.910;2022-12-10T03:25:39;23.33;;;12.77;;
38901;SDS011;24661;53.566;9.910;2022-12-10T03:28:05;19.57;;;10.67;;
38901;SDS011;24661;53.566;9.910;2022-12-10T03:30:32;22.33;;;12.37;;
38901;SDS011;24661;53.566;9.910;2022-12-10T03:33:00;16.80;;;9.73;;
38901;SDS011;24661;53.566;9.910;2022-12-10T03:35:27;17.47;;;10.30;;
38901;SDS011;24661;53.566;9.910;2022-12-10T03:37:53;17.67;;;10.07;;
38901;SDS011;24661;53.566;9.910;2022-12-10T03:40:20;17.03;;;10.20;;
38901;SDS011;24661;53.566;9.910;2022-12-10T03:42:48;15.80;;;9.23;;
38901;SDS011;24661;53.566;9.910;2022-12-10T03:45:13;18.50;;;10.43;;
38901;SDS011;24661;53.566;9.910;2022-12-10T03:47:40;16.13;;;9.87;;
38901;SDS011;24661;53.566;9.910;2022-12-10T03:50:05;17.97;;;9.77;;
38901;SDS011;24661;53.566;9.910;2022-12-10T03:52:32;18.57;;;10.77;;
38901;SDS011;24661;53.566;9.910;2022-12-10T03:54:58;16.17;;;9.23;;
38901;SDS011;24661;53.566;9.910;2022-12-10T03:57:23;19.37;;;10.13;;
38901;SDS011;24661;53.566;9.910;2022-12-10T03:59:49;18.03;;;9.63;;
38901;SDS011;24661;53.566;9.910;2022-12-10T04:02:15;14.07;;;7.43;;
38901;SDS011;24661;53.566;9.910;2022-12-10T04:04:40;14.13;;;7.87;;
38901;SDS011;24661;53.566;9.910;2022-12-10T04:07:06;17.10;;;10.13;;
38901;SDS011;24661;53.566;9.910;2022-12-10T04:09:32;19.57;;;10.57;;
38901;SDS011;24661;53.566;9.910;2022-12-10T04:11:58;21.60;;;11.03;;
38901;SDS011;24661;53.566;9.910;2022-12-10T04:14:25;17.80;;;10.10;;
38901;SDS011;24661;53.566;9.910;2022-12-10T04:17:10;18.00;;;10.27;;
38901;SDS011;24661;53.566;9.910;2022-12-10T04:19:36;22.07;;;11.33;;
38901;SDS011;24661;53.566;9.910;2022-12-10T04:22:02;20.43;;;10.70;;
38901;SDS011;24661;53.566;9.910;2022-12-10T04:24:47;15.07;;;8.67;;
38901;SDS011;24661;53.566;9.910;2022-12-10T04:27:51;14.67;;;8.60;;
38901;SDS011;24661;53.566;9.910;2022-12-10T04:30:16;15.00;;;8.03;;
38901;SDS011;24661;53.566;9.910;2022-12-10T04:32:42;15.13;;;8.03;;
38901;SDS011;24661;53.566;9.910;2022-12-10T04:35:08;14.50;;;8.93;;
38901;SDS011;24661;53.566;9.910;2022-12-10T04:37:34;13.33;;;8.43;;
38901;SDS011;24661;53.566;9.910;2022-12-10T04:40:00;13.70;;;8.13;;
38901;SDS011;24661;53.566;9.910;2022-12-10T04:42:26;19.83;;;9.47;;
38901;SDS011;24661;53.566;9.910;2022-12-10T04:44:51;16.10;;;9.97;;
38901;SDS011;24661;53.566;9.910;2022-12-10T04:47:17;17.87;;;10.07;;
38901;SDS011;24661;53.566;9.910;2022-12-10T04:49:43;15.53;;;8.57;;
38901;SDS011;24661;53.566;9.910;2022-12-10T04:52:10;19.63;;;10.27;;
38901;SDS011;24661;53.566;9.910;2022-12-10T04:54:38;22.47;;;10.53;;
38901;SDS011;24661;53.566;9.910;2022-12-10T04:57:04;19.90;;;10.37;;
38901;SDS011;24661;53.566;9.910;2022-12-10T04:59:29;15.87;;;8.30;;
38901;SDS011;24661;53.566;9.910;2022-12-10T05:01:55;16.27;;;9.07;;
38901;SDS011;24661;53.566;9.910;2022-12-10T05:04:21;14.77;;;9.17;;
38901;SDS011;24661;53.566;9.910;2022-12-10T05:06:47;17.53;;;9.90;;
38901;SDS011;24661;53.566;9.910;2022-12-10T05:09:14;12.27;;;8.37;;
38901;SDS011;24661;53.566;9.910;2022-12-10T05:11:40;13.50;;;8.07;;
38901;SDS011;24661;53.566;9.910;2022-12-10T05:14:06;13.70;;;7.63;;
38901;SDS011;24661;53.566;9.910;2022-12-10T05:16:33;15.63;;;9.17;;
38901;SDS011;24661;53.566;9.910;2022-12-10T05:18:59;14.57;;;8.10;;
38901;SDS011;24661;53.566;9.910;2022-12-10T05:21:27;12.50;;;7.27;;
38901;SDS011;24661;53.566;9.910;2022-12-10T05:24:12;13.67;;;8.40;;
38901;SDS011;24661;53.566;9.910;2022-12-10T05:26:39;13.83;;;8.50;;
38901;SDS011;24661;53.566;9.910;2022-12-10T05:29:04;19.03;;;9.00;;
38901;SDS011;24661;53.566;9.910;2022-12-10T05:31:30;16.70;;;9.37;;
38901;SDS011;24661;53.566;9.910;2022-12-10T05:33:56;14.07;;;8.33;;
38901;SDS011;24661;53.566;9.910;2022-12-10T05:36:28;14.00;;;8.43;;
38901;SDS011;24661;53.566;9.910;2022-12-10T05:38:55;14.40;;;7.77;;
38901;SDS011;24661;53.566;9.910;2022-12-10T05:41:23;14.17;;;7.80;;
38901;SDS011;24661;53.566;9.910;2022-12-10T05:43:52;17.33;;;9.60;;
38901;SDS011;24661;53.566;9.910;2022-12-10T05:46:20;18.07;;;8.97;;
38901;SDS011;24661;53.566;9.910;2022-12-10T05:48:48;14.37;;;9.17;;
38901;SDS011;24661;53.566;9.910;2022-12-10T05:51:17;11.20;;;7.80;;
38901;SDS011;24661;53.566;9.910;2022-12-10T05:53:45;14.77;;;8.37;;
38901;SDS011;24661;53.566;9.910;2022-12-10T05:56:13;12.53;;;7.53;;
38901;SDS011;24661;53.566;9.910;2022-12-10T05:58:43;11.60;;;7.70;;
38901;SDS011;24661;53.566;9.910;2022-12-10T06:01:14;14.70;;;7.77;;
38901;SDS011;24661;53.566;9.910;2022-12-10T06:03:41;14.40;;;7.70;;
38901;SDS011;24661;53.566;9.910;2022-12-10T06:06:08;13.83;;;8.07;;
38901;SDS011;24661;53.566;9.910;2022-12-10T06:08:34;13.97;;;8.27;;
38901;SDS011;24661;53.566;9.910;2022-12-10T06:11:01;13.50;;;7.77;;
38901;SDS011;24661;53.566;9.910;2022-12-10T06:13:27;14.93;;;7.97;;
38901;SDS011;24661;53.566;9.910;2022-12-10T06:15:52;13.80;;;7.60;;
38901;SDS011;24661;53.566;9.910;2022-12-10T06:18:18;16.87;;;9.30;;
38901;SDS011;24661;53.566;9.910;2022-12-10T06:20:47;10.93;;;6.97;;
38901;SDS011;24661;53.566;9.910;2022-12-10T06:23:13;16.77;;;7.50;;
38901;SDS011;24661;53.566;9.910;2022-12-10T06:25:39;12.53;;;7.13;;
38901;SDS011;24661;53.566;9.910;2022-12-10T06:28:06;11.83;;;6.60;;
38901;SDS011;24661;53.566;9.910;2022-12-10T06:30:32;13.17;;;7.67;;
38901;SDS011;24661;53.566;9.910;2022-12-10T06:32:58;14.90;;;8.17;;
38901;SDS011;24661;53.566;9.910;2022-12-10T06:35:23;12.30;;;7.00;;
38901;SDS011;24661;53.566;9.910;2022-12-10T06:37:49;18.30;;;8.47;;
38901;SDS011;24661;53.566;9.910;2022-12-10T06:40:15;17.07;;;9.03;;
38901;SDS011;24661;53.566;9.910;2022-12-10T06:42:41;13.20;;;7.30;;
38901;SDS011;24661;53.566;9.910;2022-12-10T06:45:07;13.87;;;7.77;;
38901;SDS011;24661;53.566;9.910;2022-12-10T06:47:33;13.87;;;8.33;;
38901;SDS011;24661;53.566;9.910;2022-12-10T06:49:59;13.23;;;8.00;;
38901;SDS011;24661;53.566;9.910;2022-12-10T06:52:24;15.87;;;8.77;;
38901;SDS011;24661;53.566;9.910;2022-12-10T06:54:50;13.60;;;8.17;;
38901;SDS011;24661;53.566;9.910;2022-12-10T06:57:16;13.80;;;8.07;;
38901;SDS011;24661;53.566;9.910;2022-12-10T06:59:42;13.53;;;7.80;;
38901;SDS011;24661;53.566;9.910;2022-12-10T07:02:08;13.60;;;7.50;;
38901;SDS011;24661;53.566;9.910;2022-12-10T07:04:34;14.23;;;8.47;;
38901;SDS011;24661;53.566;9.910;2022-12-10T07:07:00;13.17;;;8.17;;
38901;SDS011;24661;53.566;9.910;2022-12-10T07:09:25;12.83;;;8.10;;
38901;SDS011;24661;53.566;9.910;2022-12-10T07:11:51;16.30;;;9.50;;
38901;SDS011;24661;53.566;9.910;2022-12-10T07:14:17;12.20;;;7.90;;
38901;SDS011;24661;53.566;9.910;2022-12-10T07:16:43;15.30;;;8.43;;
38901;SDS011;24661;53.566;9.910;2022-12-10T07:19:09;14.10;;;8.20;;
38901;SDS011;24661;53.566;9.910;2022-12-10T07:21:37;18.97;;;9.23;;
38901;SDS011;24661;53.566;9.910;2022-12-10T07:24:09;15.80;;;9.27;;
38901;SDS011;24661;53.566;9.910;2022-12-10T07:26:37;17.80;;;9.40;;
38901;SDS011;24661;53.566;9.910;2022-12-10T07:29:04;15.50;;;9.17;;
38901;SDS011;24661;53.566;9.910;2022-12-10T07:31:31;14.00;;;8.43;;
38901;SDS011;24661;53.566;9.910;2022-12-10T07:33:58;14.97;;;8.20;;
38901;SDS011;24661;53.566;9.910;2022-12-10T07:36:24;12.63;;;8.47;;
38901;SDS011;24661;53.566;9.910;2022-12-10T07:38:51;16.03;;;8.73;;
38901;SDS011;24661;53.566;9.910;2022-12-10T07:41:17;16.53;;;9.23;;
38901;SDS011;24661;53.566;9.910;2022-12-10T07:43:44;13.07;;;8.77;;
38901;SDS011;24661;53.566;9.910;2022-12-10T07:46:21;12.73;;;7.47;;
38901;SDS011;24661;53.566;9.910;2022-12-10T07:48:49;15.50;;;8.80;;
38901;SDS011;24661;53.566;9.910;2022-12-10T07:51:15;14.47;;;9.07;;
38901;SDS011;24661;53.566;9.910;2022-12-10T07:53:42;15.97;;;9.23;;
38901;SDS011;24661;53.566;9.910;2022-12-10T07:56:08;14.73;;;8.20;;
38901;SDS011;24661;53.566;9.910;2022-12-10T07:58:35;15.70;;;9.60;;
38901;SDS011;24661;53.566;9.910;2022-12-10T08:01:08;14.90;;;8.33;;
38901;SDS011;24661;53.566;9.910;2022-12-10T08:03:35;15.07;;;9.30;;
38901;SDS011;24661;53.566;9.910;2022-12-10T08:06:02;13.53;;;8.33;;
38901;SDS011;24661;53.566;9.910;2022-12-10T08:08:29;13.00;;;8.47;;
38901;SDS011;24661;53.566;9.910;2022-12-10T08:10:54;12.53;;;8.37;;
38901;SDS011;24661;53.566;9.910;2022-12-10T08:13:20;15.60;;;7.90;;
38901;SDS011;24661;53.566;9.910;2022-12-10T08:15:45;12.00;;;8.27;;
38901;SDS011;24661;53.566;9.910;2022-12-10T08:18:11;12.40;;;8.03;;
38901;SDS011;24661;53.566;9.910;2022-12-10T08:20:37;13.33;;;7.67;;
38901;SDS011;24661;53.566;9.910;2022-12-10T08:23:02;12.53;;;8.03;;
38901;SDS011;24661;53.566;9.910;2022-12-10T08:25:28;13.63;;;8.63;;
38901;SDS011;24661;53.566;9.910;2022-12-10T08:27:54;14.00;;;8.10;;
38901;SDS011;24661;53.566;9.910;2022-12-10T08:30:19;12.73;;;7.43;;
38901;SDS011;24661;53.566;9.910;2022-12-10T08:32:46;11.80;;;7.90;;
38901;SDS011;24661;53.566;9.910;2022-12-10T08:35:11;11.57;;;7.57;;
38901;SDS011;24661;53.566;9.910;2022-12-10T08:37:40;11.30;;;7.10;;
38901;SDS011;24661;53.566;9.910;2022-12-10T08:40:06;15.23;;;8.00;;
38901;SDS011;24661;53.566;9.910;2022-12-10T08:42:32;11.63;;;7.93;;
38901;SDS011;24661;53.566;9.910;2022-12-10T08:44:58;13.97;;;8.33;;
38901;SDS011;24661;53.566;9.910;2022-12-10T08:47:24;13.07;;;7.53;;
38901;SDS011;24661;53.566;9.910;2022-12-10T08:49:49;13.47;;;7.50;;
38901;SDS011;24661;53.566;9.910;2022-12-10T08:52:15;10.43;;;7.10;;
38901;SDS011;24661;53.566;9.910;2022-12-10T08:54:40;13.30;;;7.77;;
38901;SDS011;24661;53.566;9.910;2022-12-10T08:57:06;13.13;;;7.93;;
38901;SDS011;24661;53.566;9.910;2022-12-10T08:59:32;12.23;;;6.97;;
38901;SDS011;24661;53.566;9.910;2022-12-10T09:01:57;11.20;;;7.33;;
38901;SDS011;24661;53.566;9.910;2022-12-10T09:04:23;10.47;;;6.70;;
38901;SDS011;24661;53.566;9.910;2022-12-10T09:06:48;8.77;;;6.47;;
38901;SDS011;24661;53.566;9.910;2022-12-10T09:09:15;9.83;;;6.57;;
38901;SDS011;24661;53.566;9.910;2022-12-10T09:11:41;11.53;;;7.37;;
38901;SDS011;24661;53.566;9.910;2022-12-10T09:14:06;12.13;;;6.87;;
38901;SDS011;24661;53.566;9.910;2022-12-10T09:16:33;13.33;;;8.77;;
38901;SDS011;24661;53.566;9.910;2022-12-10T09:19:00;14.27;;;7.97;;
38901;SDS011;24661;53.566;9.910;2022-12-10T09:21:27;12.30;;;7.37;;
38901;SDS011;24661;53.566;9.910;2022-12-10T09:23:54;13.80;;;8.90;;
38901;SDS011;24661;53.566;9.910;2022-12-10T09:26:20;12.00;;;7.40;;
38901;SDS011;24661;53.566;9.910;2022-12-10T09:28:46;8.33;;;6.00;;
38901;SDS011;24661;53.566;9.910;2022-12-10T09:31:13;9.63;;;5.93;;
38901;SDS011;24661;53.566;9.910;2022-12-10T09:33:41;9.87;;;6.73;;
38901;SDS011;24661;53.566;9.910;2022-12-10T09:36:07;10.07;;;5.60;;
38901;SDS011;24661;53.566;9.910;2022-12-10T09:38:35;9.17;;;5.67;;
38901;SDS011;24661;53.566;9.910;2022-12-10T09:41:03;14.23;;;7.27;;
38901;SDS011;24661;53.566;9.910;2022-12-10T09:51:36;11.30;;;6.93;;
38901;SDS011;24661;53.566;9.910;2022-12-10T09:54:04;12.37;;;7.17;;
38901;SDS011;24661;53.566;9.910;2022-12-10T09:56:49;14.63;;;7.80;;
38901;SDS011;24661;53.566;9.910;2022-12-10T09:59:19;12.33;;;7.90;;
38901;SDS011;24661;53.566;9.910;2022-12-10T10:01:50;10.37;;;7.17;;
38901;SDS011;24661;53.566;9.910;2022-12-10T10:04:38;10.30;;;6.63;;
38901;SDS011;24661;53.566;9.910;2022-12-10T10:07:04;12.73;;;6.70;;
38901;SDS011;24661;53.566;9.910;2022-12-10T10:09:30;8.40;;;6.23;;
38901;SDS011;24661;53.566;9.910;2022-12-10T10:12:00;10.43;;;6.50;;
38901;SDS011;24661;53.566;9.910;2022-12-10T10:14:27;12.80;;;6.80;;
38901;SDS011;24661;53.566;9.910;2022-12-10T10:17:01;9.63;;;6.13;;
38901;SDS011;24661;53.566;9.910;2022-12-10T10:19:33;8.73;;;6.10;;
38901;SDS011;24661;53.566;9.910;2022-12-10T10:22:02;11.17;;;7.60;;
38901;SDS011;24661;53.566;9.910;2022-12-10T10:24:33;11.33;;;6.83;;
38901;SDS011;24661;53.566;9.910;2022-12-10T10:29:44;12.83;;;7.40;;
38901;SDS011;24661;53.566;9.910;2022-12-10T10:32:14;10.73;;;8.23;;
38901;SDS011;24661;53.566;9.910;2022-12-10T10:34:51;13.80;;;7.90;;
38901;SDS011;24661;53.566;9.910;2022-12-10T10:37:20;15.60;;;8.13;;
38901;SDS011;24661;53.566;9.910;2022-12-10T10:40:08;15.00;;;7.80;;
38901;SDS011;24661;53.566;9.910;2022-12-10T10:42:48;11.30;;;6.83;;
38901;SDS011;24661;53.566;9.910;2022-12-10T10:48:17;8.60;;;5.70;;
38901;SDS011;24661;53.566;9.910;2022-12-10T10:53:29;13.43;;;7.57;;
38901;SDS011;24661;53.566;9.910;2022-12-10T10:56:09;19.27;;;10.10;;
38901;SDS011;24661;53.566;9.910;2022-12-10T10:58:44;16.27;;;10.50;;
38901;SDS011;24661;53.566;9.910;2022-12-10T11:01:20;14.50;;;6.90;;
38901;SDS011;24661;53.566;9.910;2022-12-10T11:03:49;11.17;;;6.67;;
38901;SDS011;24661;53.566;9.910;2022-12-10T11:06:22;10.37;;;6.27;;
38901;SDS011;24661;53.566;9.910;2022-12-10T11:08:49;14.70;;;8.70;;
38901;SDS011;24661;53.566;9.910;2022-12-10T11:11:22;15.63;;;8.90;;
38901;SDS011;24661;53.566;9.910;2022-12-10T11:16:50;9.77;;;6.50;;
38901;SDS011;24661;53.566;9.910;2022-12-10T11:19:27;8.90;;;6.53;;
38901;SDS011;24661;53.566;9.910;2022-12-10T11:21:52;12.83;;;6.77;;
38901;SDS011;24661;53.566;9.910;2022-12-10T11:24:19;9.70;;;6.60;;
38901;SDS011;24661;53.566;9.910;2022-12-10T11:35:28;10.40;;;6.40;;
38901;SDS011;24661;53.566;9.910;2022-12-10T11:49:39;9.20;;;6.37;;
38901;SDS011;24661;53.566;9.910;2022-12-10T11:55:01;11.77;;;8.53;;
38901;SDS011;24661;53.566;9.910;2022-12-10T11:57:53;17.77;;;8.87;;
38901;SDS011;24661;53.566;9.910;2022-12-10T12:00:45;12.60;;;7.57;;
38901;SDS011;24661;53.566;9.910;2022-12-10T12:12:03;9.53;;;6.37;;
38901;SDS011;24661;53.566;9.910;2022-12-10T12:14:46;10.17;;;6.83;;
38901;SDS011;24661;53.566;9.910;2022-12-10T12:17:22;8.53;;;5.43;;
38901;SDS011;24661;53.566;9.910;2022-12-10T12:19:57;10.23;;;6.70;;
38901;SDS011;24661;53.566;9.910;2022-12-10T12:22:31;10.07;;;7.17;;
38901;SDS011;24661;53.566;9.910;2022-12-10T12:25:15;9.77;;;7.00;;
38901;SDS011;24661;53.566;9.910;2022-12-10T12:27:53;11.53;;;7.20;;
38901;SDS011;24661;53.566;9.910;2022-12-10T12:30:33;14.60;;;8.50;;
38901;SDS011;24661;53.566;9.910;2022-12-10T12:40:59;14.37;;;8.83;;
38901;SDS011;24661;53.566;9.910;2022-12-10T12:44:37;13.93;;;8.73;;
38901;SDS011;24661;53.566;9.910;2022-12-10T12:46:39;13.13;;;8.70;;
38901;SDS011;24661;53.566;9.910;2022-12-10T12:49:20;12.53;;;8.43;;
38901;SDS011;24661;53.566;9.910;2022-12-10T12:54:31;12.33;;;7.93;;
38901;SDS011;24661;53.566;9.910;2022-12-10T12:57:03;14.07;;;8.47;;
38901;SDS011;24661;53.566;9.910;2022-12-10T12:59:51;12.20;;;8.37;;
38901;SDS011;24661;53.566;9.910;2022-12-10T13:02:42;14.50;;;9.70;;
38901;SDS011;24661;53.566;9.910;2022-12-10T13:13:32;11.87;;;7.63;;
38901;SDS011;24661;53.566;9.910;2022-12-10T13:35:22;11.63;;;8.03;;
38901;SDS011;24661;53.566;9.910;2022-12-10T13:49:03;14.97;;;8.17;;
38901;SDS011;24661;53.566;9.910;2022-12-10T13:56:38;14.03;;;9.13;;
38901;SDS011;24661;53.566;9.910;2022-12-10T14:01:59;12.70;;;8.13;;
38901;SDS011;24661;53.566;9.910;2022-12-10T14:07:14;14.57;;;8.20;;
38901;SDS011;24661;53.566;9.910;2022-12-10T14:09:44;12.67;;;8.40;;
38901;SDS011;24661;53.566;9.910;2022-12-10T14:12:20;14.70;;;8.53;;
38901;SDS011;24661;53.566;9.910;2022-12-10T14:14:53;11.00;;;7.50;;
38901;SDS011;24661;53.566;9.910;2022-12-10T14:17:24;17.13;;;10.10;;
38901;SDS011;24661;53.566;9.910;2022-12-10T14:19:58;14.07;;;9.43;;
38901;SDS011;24661;53.566;9.910;2022-12-10T14:22:29;13.37;;;8.50;;
38901;SDS011;24661;53.566;9.910;2022-12-10T14:24:58;13.43;;;8.37;;
38901;SDS011;24661;53.566;9.910;2022-12-10T14:27:26;14.43;;;8.83;;
38901;SDS011;24661;53.566;9.910;2022-12-10T14:30:00;12.90;;;8.80;;
38901;SDS011;24661;53.566;9.910;2022-12-10T14:32:35;11.13;;;7.80;;
38901;SDS011;24661;53.566;9.910;2022-12-10T14:35:06;16.13;;;8.60;;
38901;SDS011;24661;53.566;9.910;2022-12-10T14:37:39;11.50;;;8.03;;
38901;SDS011;24661;53.566;9.910;2022-12-10T14:40:08;13.77;;;8.67;;
38901;SDS011;24661;53.566;9.910;2022-12-10T14:43:07;12.40;;;8.13;;
38901;SDS011;24661;53.566;9.910;2022-12-10T14:45:42;15.83;;;8.03;;
38901;SDS011;24661;53.566;9.910;2022-12-10T14:48:18;19.20;;;10.27;;
38901;SDS011;24661;53.566;9.910;2022-12-10T14:50:45;15.37;;;9.53;;
38901;SDS011;24661;53.566;9.910;2022-12-10T14:53:13;16.73;;;9.10;;
38901;SDS011;24661;53.566;9.910;2022-12-10T14:55:42;16.43;;;9.43;;
38901;SDS011;24661;53.566;9.910;2022-12-10T14:58:11;17.57;;;8.90;;
38901;SDS011;24661;53.566;9.910;2022-12-10T15:00:43;14.27;;;8.57;;
38901;SDS011;24661;53.566;9.910;2022-12-10T15:03:13;14.40;;;7.70;;
38901;SDS011;24661;53.566;9.910;2022-12-10T15:06:08;13.17;;;8.03;;
38901;SDS011;24661;53.566;9.910;2022-12-10T15:08:34;12.57;;;8.10;;
38901;SDS011;24661;53.566;9.910;2022-12-10T15:11:01;15.33;;;7.83;;
38901;SDS011;24661;53.566;9.910;2022-12-10T15:13:40;14.73;;;8.73;;
38901;SDS011;24661;53.566;9.910;2022-12-10T15:19:22;13.00;;;8.33;;
38901;SDS011;24661;53.566;9.910;2022-12-10T15:21:51;13.20;;;7.97;;
38901;SDS011;24661;53.566;9.910;2022-12-10T15:24:32;11.63;;;7.90;;
38901;SDS011;24661;53.566;9.910;2022-12-10T15:27:14;13.00;;;8.27;;
38901;SDS011;24661;53.566;9.910;2022-12-10T15:29:43;10.63;;;7.17;;
38901;SDS011;24661;53.566;9.910;2022-12-10T15:32:11;14.87;;;8.53;;
38901;SDS011;24661;53.566;9.910;2022-12-10T15:34:44;14.37;;;9.07;;
38901;SDS011;24661;53.566;9.910;2022-12-10T15:37:17;17.03;;;8.63;;
38901;SDS011;24661;53.566;9.910;2022-12-10T15:39:56;13.53;;;7.33;;
38901;SDS011;24661;53.566;9.910;2022-12-10T15:42:37;17.07;;;8.27;;
38901;SDS011;24661;53.566;9.910;2022-12-10T15:45:24;12.00;;;7.83;;
38901;SDS011;24661;53.566;9.910;2022-12-10T15:47:52;15.53;;;8.67;;
38901;SDS011;24661;53.566;9.910;2022-12-10T15:50:25;12.67;;;8.60;;
38901;SDS011;24661;53.566;9.910;2022-12-10T15:52:51;16.00;;;9.97;;
38901;SDS011;24661;53.566;9.910;2022-12-10T15:55:17;14.17;;;9.27;;
38901;SDS011;24661;53.566;9.910;2022-12-10T15:57:43;14.27;;;8.60;;
38901;SDS011;24661;53.566;9.910;2022-12-10T16:00:18;16.43;;;9.17;;
38901;SDS011;24661;53.566;9.910;2022-12-10T16:02:58;14.90;;;8.83;;
38901;SDS011;24661;53.566;9.910;2022-12-10T16:05:29;15.53;;;10.20;;
38901;SDS011;24661;53.566;9.910;2022-12-10T16:08:01;18.33;;;10.87;;
38901;SDS011;24661;53.566;9.910;2022-12-10T16:10:39;15.63;;;11.00;;
38901;SDS011;24661;53.566;9.910;2022-12-10T16:13:05;16.47;;;9.97;;
38901;SDS011;24661;53.566;9.910;2022-12-10T16:15:45;15.97;;;9.60;;
38901;SDS011;24661;53.566;9.910;2022-12-10T16:18:15;25.33;;;12.97;;
38901;SDS011;24661;53.566;9.910;2022-12-10T16:20:40;22.67;;;12.33;;
38901;SDS011;24661;53.566;9.910;2022-12-10T16:23:09;20.97;;;12.10;;
38901;SDS011;24661;53.566;9.910;2022-12-10T16:25:36;17.07;;;9.90;;
38901;SDS011;24661;53.566;9.910;2022-12-10T16:28:09;18.83;;;10.13;;
38901;SDS011;24661;53.566;9.910;2022-12-10T16:30:38;16.43;;;10.60;;
38901;SDS011;24661;53.566;9.910;2022-12-10T16:33:07;19.27;;;10.60;;
38901;SDS011;24661;53.566;9.910;2022-12-10T16:35:33;21.13;;;12.00;;
38901;SDS011;24661;53.566;9.910;2022-12-10T16:37:59;20.43;;;11.27;;
38901;SDS011;24661;53.566;9.910;2022-12-10T16:40:25;17.70;;;10.63;;
38901;SDS011;24661;53.566;9.910;2022-12-10T16:42:54;16.93;;;10.73;;
38901;SDS011;24661;53.566;9.910;2022-12-10T16:47:50;17.70;;;9.63;;
38901;SDS011;24661;53.566;9.910;2022-12-10T16:50:19;19.50;;;11.27;;
38901;SDS011;24661;53.566;9.910;2022-12-10T16:52:46;20.67;;;11.80;;
38901;SDS011;24661;53.566;9.910;2022-12-10T16:55:13;21.33;;;12.33;;
38901;SDS011;24661;53.566;9.910;2022-12-10T16:57:41;21.07;;;11.83;;